createdAt,value
2018-09-05T00:00:54.867Z,7.30
2018-09-05T00:03:21.691Z,7.10
2018-09-05T00:05:48.644Z,7.43
2018-09-05T00:08:15.493Z,8.40
2018-09-05T00:10:42.403Z,6.83
2018-09-05T00:13:09.206Z,8.30
2018-09-05T00:15:36.208Z,8.30
2018-09-05T00:18:03.031Z,8.33
2018-09-05T00:20:29.906Z,6.90
2018-09-05T00:22:56.792Z,7.27
2018-09-05T00:25:23.782Z,7.33
2018-09-05T00:27:50.617Z,8.20
2018-09-05T00:30:17.447Z,7.70
2018-09-05T00:32:44.276Z,8.00
2018-09-05T00:35:11.185Z,7.53
2018-09-05T00:37:38.005Z,7.57
2018-09-05T00:40:04.853Z,8.43
2018-09-05T00:42:31.686Z,7.20
2018-09-05T00:44:58.587Z,8.10
2018-09-05T00:47:25.409Z,7.50
2018-09-05T00:49:52.322Z,7.90
2018-09-05T00:52:19.138Z,7.03
2018-09-05T00:54:46.215Z,7.30
2018-09-05T00:57:13.023Z,7.27
2018-09-05T00:59:39.855Z,8.73
2018-09-05T01:02:06.764Z,7.70
2018-09-05T01:04:33.577Z,7.37
2018-09-05T01:07:00.673Z,7.67
2018-09-05T01:09:27.487Z,7.40
2018-09-05T01:11:54.312Z,7.33
2018-09-05T01:14:21.129Z,7.10
2018-09-05T01:16:48.291Z,7.13
2018-09-05T01:19:15.102Z,6.93
2018-09-05T01:21:41.923Z,7.53
2018-09-05T01:24:08.757Z,7.90
2018-09-05T01:26:35.683Z,7.80
2018-09-05T01:29:02.505Z,7.47
2018-09-05T01:31:29.342Z,7.20
2018-09-05T01:33:56.158Z,6.67
2018-09-05T01:36:23.045Z,8.17
2018-09-05T01:38:49.862Z,7.20
2018-09-05T01:41:16.693Z,6.97
2018-09-05T01:43:43.517Z,6.70
2018-09-05T01:46:10.443Z,8.00
2018-09-05T01:48:37.262Z,7.90
2018-09-05T01:51:04.081Z,6.93
2018-09-05T01:53:30.902Z,7.20
2018-09-05T01:55:57.789Z,7.60
2018-09-05T01:58:24.611Z,7.03
2018-09-05T02:00:51.582Z,7.47
2018-09-05T02:04:01.433Z,7.20
2018-09-05T02:06:28.378Z,6.80
2018-09-05T02:08:55.211Z,6.80
2018-09-05T02:11:22.030Z,7.00
2018-09-05T02:13:48.867Z,6.90
2018-09-05T02:16:15.755Z,7.17
2018-09-05T02:18:42.574Z,7.97
2018-09-05T02:21:09.433Z,8.00
2018-09-05T02:23:36.259Z,7.80
2018-09-05T02:26:03.133Z,8.00
2018-09-05T02:28:29.966Z,7.90
2018-09-05T02:30:56.785Z,6.70
2018-09-05T02:33:23.609Z,6.77
2018-09-05T02:35:50.497Z,7.80
2018-09-05T02:38:17.321Z,7.60
2018-09-05T02:40:44.324Z,7.97
2018-09-05T02:43:11.096Z,7.70
2018-09-05T02:45:38.074Z,7.40
2018-09-05T02:48:04.888Z,8.03
2018-09-05T02:50:31.714Z,7.70
2018-09-05T02:52:58.542Z,7.53
2018-09-05T02:55:25.474Z,7.20
2018-09-05T02:57:52.300Z,7.93
2018-09-05T03:00:19.138Z,7.83
2018-09-05T03:02:45.974Z,8.33
2018-09-05T03:05:12.811Z,7.40
2018-09-05T03:07:39.632Z,8.60
2018-09-05T03:10:06.503Z,7.80
2018-09-05T03:12:33.348Z,7.87
2018-09-05T03:15:00.174Z,8.27
2018-09-05T03:17:27.006Z,7.63
2018-09-05T03:19:53.831Z,7.73
2018-09-05T03:22:20.651Z,8.00
2018-09-05T03:24:47.508Z,8.27
2018-09-05T03:27:14.309Z,8.10
2018-09-05T03:29:41.130Z,7.60
2018-09-05T03:32:08.155Z,6.47
2018-09-05T03:34:34.859Z,8.07
2018-09-05T03:37:01.777Z,7.33
2018-09-05T03:39:28.586Z,7.00
2018-09-05T03:41:55.414Z,7.50
2018-09-05T03:44:22.247Z,6.87
2018-09-05T03:46:49.161Z,7.70
2018-09-05T03:49:15.983Z,7.07
2018-09-05T03:51:42.836Z,7.30
2018-09-05T03:54:09.666Z,7.93
2018-09-05T03:56:36.506Z,7.33
2018-09-05T03:59:03.332Z,7.67
2018-09-05T04:01:30.158Z,6.90
2018-09-05T04:03:56.994Z,7.20
2018-09-05T04:06:23.879Z,7.43
2018-09-05T04:08:50.716Z,6.73
2018-09-05T04:11:17.546Z,7.03
2018-09-05T04:13:44.377Z,7.87
2018-09-05T04:16:11.249Z,7.03
2018-09-05T04:18:38.071Z,7.73
2018-09-05T04:21:04.904Z,7.60
2018-09-05T04:23:31.739Z,8.40
2018-09-05T04:25:58.632Z,7.80
2018-09-05T04:28:25.458Z,7.40
2018-09-05T04:30:52.313Z,6.80
2018-09-05T04:33:19.142Z,6.20
2018-09-05T04:35:46.007Z,6.23
2018-09-05T04:38:12.837Z,7.73
2018-09-05T04:40:39.659Z,7.10
2018-09-05T04:43:06.527Z,6.53
2018-09-05T04:45:33.384Z,6.90
2018-09-05T04:48:00.212Z,7.87
2018-09-05T04:50:27.054Z,7.77
2018-09-05T04:52:53.871Z,6.40
2018-09-05T04:55:20.742Z,7.47
2018-09-05T04:57:47.562Z,7.60
2018-09-05T05:00:14.415Z,7.13
2018-09-05T05:02:41.261Z,7.20
2018-09-05T05:05:08.115Z,7.80
2018-09-05T05:07:34.968Z,7.00
2018-09-05T05:10:01.788Z,6.93
2018-09-05T05:12:28.662Z,7.77
2018-09-05T05:14:55.471Z,7.10
2018-09-05T05:17:22.286Z,6.30
2018-09-05T05:19:49.117Z,6.90
2018-09-05T05:22:15.937Z,6.70
2018-09-05T05:24:42.779Z,6.87
2018-09-05T05:27:09.602Z,6.40
2018-09-05T05:29:36.417Z,6.93
2018-09-05T05:32:03.254Z,6.30
2018-09-05T05:34:30.079Z,7.73
2018-09-05T05:36:57.075Z,6.97
2018-09-05T05:39:23.898Z,7.37
2018-09-05T05:41:50.731Z,7.03
2018-09-05T05:44:17.563Z,6.00
2018-09-05T05:46:44.497Z,7.00
2018-09-05T05:49:11.285Z,6.53
2018-09-05T05:51:38.116Z,6.40
2018-09-05T05:54:04.937Z,6.87
2018-09-05T05:56:31.809Z,6.50
2018-09-05T05:58:58.644Z,6.60
2018-09-05T06:01:25.463Z,7.13
2018-09-05T06:03:52.302Z,7.57
2018-09-05T06:06:19.304Z,6.43
2018-09-05T06:08:46.009Z,6.80
2018-09-05T06:11:12.837Z,7.10
2018-09-05T06:13:39.660Z,6.93
2018-09-05T06:16:06.563Z,6.60
2018-09-05T06:18:33.400Z,6.87
2018-09-05T06:21:00.276Z,6.47
2018-09-05T06:23:27.045Z,5.87
2018-09-05T06:25:53.931Z,5.97
2018-09-05T06:28:20.817Z,6.93
2018-09-05T06:30:47.685Z,6.77
2018-09-05T06:33:14.456Z,6.70
2018-09-05T06:35:41.297Z,7.20
2018-09-05T06:38:08.118Z,6.70
2018-09-05T06:40:34.950Z,7.30
2018-09-05T06:43:01.782Z,6.80
2018-09-05T06:45:28.736Z,6.70
2018-09-05T06:47:55.505Z,6.67
2018-09-05T06:50:22.354Z,7.80
2018-09-05T06:52:49.189Z,6.50
2018-09-05T06:55:16.054Z,6.57
2018-09-05T06:57:43.111Z,6.97
2018-09-05T07:00:09.969Z,6.23
2018-09-05T07:02:36.818Z,7.70
2018-09-05T07:05:03.821Z,7.40
2018-09-05T07:07:30.659Z,7.70
2018-09-05T07:09:57.506Z,7.23
2018-09-05T07:12:24.312Z,7.27
2018-09-05T07:14:51.151Z,7.13
2018-09-05T07:17:18.473Z,7.00
2018-09-05T07:19:45.316Z,6.77
2018-09-05T07:22:12.138Z,7.73
2018-09-05T07:24:38.958Z,7.43
2018-09-05T07:27:05.779Z,6.77
2018-09-05T07:29:32.605Z,6.93
2018-09-05T07:31:59.428Z,7.07
2018-09-05T07:34:26.263Z,6.83
2018-09-05T07:36:53.194Z,7.33
2018-09-05T07:39:20.077Z,7.20
2018-09-05T07:41:46.939Z,6.73
2018-09-05T07:44:13.773Z,7.50
2018-09-05T07:46:40.777Z,6.93
2018-09-05T07:49:07.601Z,7.70
2018-09-05T07:51:34.428Z,8.17
2018-09-05T07:54:01.250Z,8.20
2018-09-05T07:56:28.136Z,7.70
2018-09-05T07:58:54.977Z,8.30
2018-09-05T08:01:21.793Z,7.43
2018-09-05T08:03:48.609Z,7.53
2018-09-05T08:06:15.531Z,7.60
2018-09-05T08:08:42.359Z,7.53
2018-09-05T08:11:09.197Z,7.47
2018-09-05T08:13:36.022Z,7.53
2018-09-05T08:16:02.897Z,8.30
2018-09-05T08:18:29.714Z,7.13
2018-09-05T08:20:56.543Z,8.90
2018-09-05T08:23:23.365Z,9.00
2018-09-05T08:25:50.263Z,8.50
2018-09-05T08:28:17.208Z,8.27
2018-09-05T08:30:44.041Z,8.33
2018-09-05T08:33:10.860Z,8.77
2018-09-05T08:35:37.977Z,9.00
2018-09-05T08:38:04.787Z,8.80
2018-09-05T08:40:31.514Z,9.93
2018-09-05T08:42:58.354Z,9.03
2018-09-05T08:45:25.422Z,9.10
2018-09-05T08:47:52.132Z,9.90
2018-09-05T08:50:18.900Z,9.37
2018-09-05T08:52:45.739Z,10.37
2018-09-05T08:55:12.614Z,9.10
2018-09-05T08:57:39.405Z,10.27
2018-09-05T09:00:06.231Z,9.90
2018-09-05T09:02:33.074Z,10.23
2018-09-05T09:04:59.962Z,10.07
2018-09-05T09:07:26.718Z,8.83
2018-09-05T09:09:53.542Z,10.60
2018-09-05T09:12:20.363Z,9.27
2018-09-05T09:14:47.187Z,9.57
2018-09-05T09:17:14.300Z,9.17
2018-09-05T09:19:41.087Z,9.37
2018-09-05T09:22:07.914Z,9.93
2018-09-05T09:24:34.756Z,9.33
2018-09-05T09:27:01.747Z,9.73
2018-09-05T09:29:28.578Z,9.33
2018-09-05T09:31:55.423Z,9.60
2018-09-05T09:34:22.249Z,9.40
2018-09-05T09:36:49.122Z,8.77
2018-09-05T09:39:15.950Z,8.97
2018-09-05T09:41:42.770Z,9.60
2018-09-05T09:44:09.603Z,10.03
2018-09-05T09:46:36.534Z,9.77
2018-09-05T09:49:03.347Z,10.60
2018-09-05T09:51:30.178Z,9.80
2018-09-05T09:53:57.006Z,9.93
2018-09-05T09:56:23.861Z,9.67
2018-09-05T09:58:50.683Z,10.27
2018-09-05T10:01:17.526Z,9.50
2018-09-05T10:03:44.483Z,10.37
2018-09-05T10:06:11.242Z,9.30
2018-09-05T10:08:38.070Z,9.43
2018-09-05T10:11:04.877Z,10.53
2018-09-05T10:13:31.771Z,9.97
2018-09-05T10:15:58.603Z,9.50
2018-09-05T10:18:25.415Z,9.70
2018-09-05T10:20:52.248Z,9.57
2018-09-05T10:23:19.073Z,10.23
2018-09-05T10:25:45.970Z,8.37
2018-09-05T10:28:12.806Z,9.67
2018-09-05T10:30:39.647Z,9.20
2018-09-05T10:33:06.484Z,9.10
2018-09-05T10:35:33.346Z,10.27
2018-09-05T10:38:00.171Z,8.90
2018-09-05T10:40:27.011Z,10.00
2018-09-05T10:42:53.835Z,9.30
2018-09-05T10:45:20.725Z,9.10
2018-09-05T10:47:47.550Z,9.47
2018-09-05T10:50:14.369Z,9.90
2018-09-05T10:52:41.202Z,9.27
2018-09-05T10:55:08.971Z,10.00
2018-09-05T10:57:35.791Z,9.17
2018-09-05T11:00:02.613Z,8.33
2018-09-05T11:02:29.685Z,9.63
2018-09-05T11:04:56.480Z,9.73
2018-09-05T11:07:23.319Z,8.77
2018-09-05T11:09:50.147Z,8.60
2018-09-05T11:12:16.972Z,8.60
2018-09-05T11:14:43.811Z,8.53
2018-09-05T11:17:10.664Z,9.90
2018-09-05T11:19:37.489Z,8.67
2018-09-05T11:22:04.323Z,8.50
2018-09-05T11:24:31.314Z,8.80
2018-09-05T11:26:59.303Z,9.20
2018-09-05T11:29:26.133Z,8.50
2018-09-05T11:31:52.954Z,8.17
2018-09-05T11:34:19.789Z,9.70
2018-09-05T11:36:46.684Z,8.63
2018-09-05T11:39:13.497Z,8.73
2018-09-05T11:41:40.322Z,8.60
2018-09-05T11:44:07.150Z,8.80
2018-09-05T11:46:34.038Z,8.67
2018-09-05T11:49:00.868Z,9.00
2018-09-05T11:51:27.688Z,8.97
2018-09-05T11:53:54.506Z,9.57
2018-09-05T11:56:21.415Z,8.90
2018-09-05T11:58:48.233Z,8.70
2018-09-05T12:01:15.064Z,8.50
2018-09-05T12:03:41.873Z,9.27
2018-09-05T12:06:08.788Z,8.40
2018-09-05T12:08:35.608Z,8.87
2018-09-05T12:11:02.433Z,8.27
2018-09-05T12:13:29.260Z,8.40
2018-09-05T12:15:56.157Z,8.60
2018-09-05T12:18:22.998Z,8.97
2018-09-05T12:20:49.828Z,8.20
2018-09-05T12:23:16.660Z,8.67
2018-09-05T12:25:43.528Z,9.40
2018-09-05T12:28:10.359Z,9.63
2018-09-05T12:30:37.188Z,8.63
2018-09-05T12:33:04.019Z,9.50
2018-09-05T12:35:30.891Z,8.60
2018-09-05T12:37:57.717Z,8.53
2018-09-05T12:40:24.575Z,9.07
2018-09-05T12:42:51.403Z,8.90
2018-09-05T12:45:18.266Z,9.03
2018-09-05T12:47:45.100Z,9.10
2018-09-05T12:50:11.922Z,8.60
2018-09-05T12:52:38.744Z,9.03
2018-09-05T12:55:05.639Z,9.40
2018-09-05T12:57:32.467Z,8.83
2018-09-05T12:59:59.293Z,8.67
2018-09-05T13:02:26.994Z,8.60
2018-09-05T13:04:53.814Z,8.23
2018-09-05T13:07:20.637Z,8.33
2018-09-05T13:09:47.557Z,8.37
2018-09-05T13:12:14.387Z,8.40
2018-09-05T13:14:41.216Z,8.70
2018-09-05T13:17:08.042Z,9.37
2018-09-05T13:19:34.880Z,8.37
2018-09-05T13:22:01.714Z,9.03
2018-09-05T13:24:28.525Z,8.93
2018-09-05T13:26:55.428Z,8.63
2018-09-05T13:29:22.298Z,8.70
2018-09-05T13:31:49.086Z,8.73
2018-09-05T13:34:15.912Z,8.60
2018-09-05T13:36:42.786Z,8.70
2018-09-05T13:39:09.620Z,8.07
2018-09-05T13:41:36.445Z,8.50
2018-09-05T13:44:03.278Z,8.70
2018-09-05T13:46:30.164Z,8.93
2018-09-05T13:48:56.991Z,8.40
2018-09-05T13:51:23.813Z,8.10
2018-09-05T13:53:50.678Z,8.90
2018-09-05T13:56:17.538Z,8.70
2018-09-05T13:58:44.357Z,7.83
2018-09-05T14:01:11.176Z,9.10
2018-09-05T14:03:38.008Z,7.90
2018-09-05T14:06:04.907Z,9.00
2018-09-05T14:08:31.727Z,9.17
2018-09-05T14:10:58.571Z,8.73
2018-09-05T14:13:25.463Z,8.73
2018-09-05T14:15:52.284Z,9.53
2018-09-05T14:18:19.167Z,9.87
2018-09-05T14:20:46.061Z,9.33
2018-09-05T14:23:12.891Z,8.10
2018-09-05T14:25:39.860Z,8.27
2018-09-05T14:28:06.690Z,7.87
2018-09-05T14:30:33.515Z,8.17
2018-09-05T14:33:00.331Z,8.70
2018-09-05T14:35:27.223Z,7.97
2018-09-05T14:37:54.047Z,8.23
2018-09-05T14:40:20.868Z,8.17
2018-09-05T14:42:47.682Z,8.17
2018-09-05T14:45:14.596Z,8.30
2018-09-05T14:47:41.431Z,7.97
2018-09-05T14:50:08.734Z,8.07
2018-09-05T14:52:35.539Z,9.00
2018-09-05T14:55:02.374Z,8.20
2018-09-05T14:57:29.204Z,8.53
2018-09-05T14:59:56.080Z,7.50
2018-09-05T15:02:23.699Z,7.70
2018-09-05T15:04:50.546Z,8.50
2018-09-05T15:07:17.370Z,7.57
2018-09-05T15:09:44.210Z,7.47
2018-09-05T15:12:11.033Z,7.57
2018-09-05T15:14:37.878Z,8.77
2018-09-05T15:17:04.725Z,8.07
2018-09-05T15:19:31.568Z,7.93
2018-09-05T15:21:58.364Z,8.10
2018-09-05T15:24:25.198Z,8.50
2018-09-05T15:26:52.158Z,8.90
2018-09-05T15:29:18.995Z,8.93
2018-09-05T15:31:45.832Z,8.73
2018-09-05T15:34:12.653Z,8.30
2018-09-05T15:36:39.564Z,8.53
2018-09-05T15:39:06.360Z,8.33
2018-09-05T15:41:33.199Z,8.07
2018-09-05T15:44:00.024Z,8.43
2018-09-05T15:46:26.896Z,7.70
2018-09-05T15:48:53.727Z,8.03
2018-09-05T15:51:20.624Z,7.47
2018-09-05T15:53:47.431Z,8.00
2018-09-05T15:56:14.267Z,7.80
2018-09-05T15:58:41.105Z,7.93
2018-09-05T16:01:07.940Z,7.67
2018-09-05T16:03:34.772Z,8.30
2018-09-05T16:06:01.639Z,8.53
2018-09-05T16:08:28.485Z,7.70
2018-09-05T16:10:55.330Z,8.03
2018-09-05T16:13:22.160Z,8.37
2018-09-05T16:15:49.025Z,8.97
2018-09-05T16:18:15.854Z,8.30
2018-09-05T16:20:43.116Z,8.03
2018-09-05T16:23:10.597Z,9.07
2018-09-05T16:25:38.022Z,8.00
2018-09-05T16:28:05.464Z,7.80
2018-09-05T16:30:32.616Z,8.40
2018-09-05T16:33:01.222Z,8.50
2018-09-05T16:35:29.334Z,8.80
2018-09-05T16:37:56.525Z,9.27
2018-09-05T16:40:23.640Z,8.60
2018-09-05T16:42:50.672Z,8.80
2018-09-05T16:45:17.903Z,8.50
2018-09-05T16:47:45.011Z,8.50
2018-09-05T16:50:12.084Z,8.60
2018-09-05T16:55:12.297Z,9.00
2018-09-05T16:57:39.455Z,8.03
2018-09-05T17:00:06.510Z,9.53
2018-09-05T17:02:33.567Z,8.90
2018-09-05T17:05:00.901Z,8.70
2018-09-05T17:07:27.973Z,8.67
2018-09-05T17:09:55.047Z,9.23
2018-09-05T17:12:22.168Z,8.43
2018-09-05T17:14:49.720Z,8.93
2018-09-05T17:17:17.550Z,9.50
2018-09-05T17:19:44.462Z,9.50
2018-09-05T17:22:11.414Z,9.20
2018-09-05T17:24:38.258Z,8.47
2018-09-05T17:27:05.088Z,8.60
2018-09-05T17:29:31.927Z,8.03
2018-09-05T17:31:58.764Z,8.93
2018-09-05T17:34:25.692Z,8.30
2018-09-05T17:36:52.646Z,9.20
2018-09-05T17:39:19.481Z,9.00
2018-09-05T17:41:46.342Z,9.30
2018-09-05T17:44:13.141Z,9.33
2018-09-05T17:46:40.224Z,8.53
2018-09-05T17:49:07.062Z,8.57
2018-09-05T17:51:33.879Z,9.27
2018-09-05T17:54:00.749Z,9.00
2018-09-05T17:56:27.761Z,8.83
2018-09-05T17:58:54.623Z,8.07
2018-09-05T18:01:21.453Z,9.10
2018-09-05T18:03:48.541Z,9.27
2018-09-05T18:06:15.432Z,9.03
2018-09-05T18:08:42.235Z,8.80
2018-09-05T18:11:09.066Z,8.70
2018-09-05T18:13:35.955Z,9.27
2018-09-05T18:16:03.197Z,9.73
2018-09-05T18:18:30.841Z,9.80
2018-09-05T18:20:57.660Z,9.33
2018-09-05T18:23:24.487Z,9.10
2018-09-05T18:25:51.349Z,9.30
2018-09-05T18:28:18.283Z,10.00
2018-09-05T18:30:45.126Z,9.60
2018-09-05T18:33:11.974Z,9.30
2018-09-05T18:35:38.925Z,9.43
2018-09-05T18:38:05.814Z,8.40
2018-09-05T18:40:32.574Z,9.47
2018-09-05T18:42:59.418Z,9.20
2018-09-05T18:45:26.297Z,8.97
2018-09-05T18:47:53.126Z,8.97
2018-09-05T18:50:20.024Z,9.53
2018-09-05T18:52:46.827Z,9.67
2018-09-05T18:55:13.672Z,9.07
2018-09-05T18:57:40.492Z,9.90
2018-09-05T19:00:07.327Z,9.10
2018-09-05T19:02:34.180Z,9.73
2018-09-05T19:05:01.046Z,9.63
2018-09-05T19:07:27.876Z,10.10
2018-09-05T19:09:54.711Z,9.60
2018-09-05T19:12:21.539Z,10.03
2018-09-05T19:14:48.381Z,9.37
2018-09-05T19:17:15.190Z,9.60
2018-09-05T19:19:42.090Z,8.67
2018-09-05T19:22:08.916Z,9.60
2018-09-05T19:24:35.747Z,9.43
2018-09-05T19:27:02.592Z,9.50
2018-09-05T19:29:29.435Z,10.53
2018-09-05T19:31:56.258Z,8.93
2018-09-05T19:34:23.087Z,9.90
2018-09-05T19:36:50.006Z,10.57
2018-09-05T19:39:16.837Z,10.87
2018-09-05T19:41:43.677Z,10.00
2018-09-05T19:44:10.510Z,9.97
2018-09-05T19:46:37.367Z,9.97
2018-09-05T19:49:04.202Z,9.20
2018-09-05T19:51:31.030Z,10.03
2018-09-05T19:53:57.879Z,10.00
2018-09-05T19:56:24.733Z,9.37
2018-09-05T19:58:51.576Z,9.33
2018-09-05T20:01:18.433Z,10.10
2018-09-05T20:03:45.251Z,9.77
2018-09-05T20:06:12.149Z,10.23
2018-09-05T20:08:38.983Z,9.03
2018-09-05T20:11:05.774Z,9.23
2018-09-05T20:13:32.609Z,10.43
2018-09-05T20:15:59.478Z,8.50
2018-09-05T20:18:26.323Z,10.23
2018-09-05T20:20:53.142Z,9.27
2018-09-05T20:23:20.031Z,8.57
2018-09-05T20:25:46.880Z,9.20
2018-09-05T20:28:13.689Z,10.53
2018-09-05T20:30:40.515Z,10.37
2018-09-05T20:33:07.437Z,9.97
2018-09-05T20:35:34.225Z,9.27
2018-09-05T20:38:01.059Z,9.63
2018-09-05T20:40:27.891Z,9.60
2018-09-05T20:42:54.778Z,10.47
2018-09-05T20:45:21.597Z,10.13
2018-09-05T20:47:48.417Z,10.50
2018-09-05T20:50:15.276Z,10.60
2018-09-05T20:52:42.225Z,10.53
2018-09-05T20:55:09.197Z,9.90
2018-09-05T20:57:36.038Z,9.53
2018-09-05T21:00:02.886Z,9.00
2018-09-05T21:02:31.418Z,9.77
2018-09-05T21:04:58.264Z,10.03
2018-09-05T21:07:25.074Z,10.43
2018-09-05T21:09:51.902Z,9.70
2018-09-05T21:12:18.927Z,10.40
2018-09-05T21:14:45.765Z,9.40
2018-09-05T21:17:12.589Z,10.63
2018-09-05T21:19:39.411Z,10.80
2018-09-05T21:22:06.229Z,10.67
2018-09-05T21:24:33.066Z,10.13
2018-09-05T21:26:59.904Z,10.23
2018-09-05T21:29:26.759Z,10.40
2018-09-05T21:31:53.595Z,10.03
2018-09-05T21:34:20.423Z,9.90
2018-09-05T21:36:47.285Z,9.90
2018-09-05T21:39:14.122Z,10.40
2018-09-05T21:41:40.943Z,10.60
2018-09-05T21:44:07.774Z,10.00
2018-09-05T21:46:34.588Z,9.90
2018-09-05T21:49:01.417Z,10.33
2018-09-05T21:51:28.266Z,10.20
2018-09-05T21:53:55.101Z,9.70
2018-09-05T21:56:21.931Z,10.33
2018-09-05T21:58:48.766Z,11.20
2018-09-05T22:01:15.617Z,10.53
2018-09-05T22:03:42.437Z,10.60
2018-09-05T22:06:09.270Z,9.60
2018-09-05T22:08:36.098Z,10.67
2018-09-05T22:11:02.923Z,9.63
2018-09-05T22:13:29.793Z,10.47
2018-09-05T22:15:56.575Z,10.63
2018-09-05T22:18:23.402Z,10.13
2018-09-05T22:20:50.223Z,10.73
2018-09-05T22:23:17.044Z,10.27
2018-09-05T22:25:43.889Z,9.53
2018-09-05T22:28:10.728Z,10.70
2018-09-05T22:30:37.558Z,11.77
2018-09-05T22:33:04.390Z,10.27
2018-09-05T22:35:31.375Z,9.30
2018-09-05T22:37:58.203Z,10.83
2018-09-05T22:40:25.037Z,10.77
2018-09-05T22:42:51.865Z,9.70
2018-09-05T22:45:18.782Z,10.83
2018-09-05T22:47:45.581Z,10.70
2018-09-05T22:50:12.430Z,10.53
2018-09-05T22:52:39.264Z,10.40
2018-09-05T22:55:06.105Z,11.00
2018-09-05T22:57:32.950Z,10.90
2018-09-05T22:59:59.793Z,10.70
2018-09-05T23:02:26.619Z,9.60
2018-09-05T23:04:53.458Z,11.33
2018-09-05T23:07:20.297Z,10.87
2018-09-05T23:09:47.145Z,10.23
2018-09-05T23:12:13.973Z,9.87
2018-09-05T23:14:40.902Z,11.30
2018-09-05T23:17:08.337Z,9.97
2018-09-05T23:19:35.133Z,9.50
2018-09-05T23:22:01.977Z,10.53
2018-09-05T23:24:28.812Z,10.30
2018-09-05T23:26:55.645Z,10.20
2018-09-05T23:29:22.466Z,11.30
2018-09-05T23:31:49.307Z,10.10
2018-09-05T23:34:16.156Z,9.70
2018-09-05T23:36:42.989Z,9.93
2018-09-05T23:39:09.835Z,9.17
2018-09-05T23:41:36.660Z,10.70
2018-09-05T23:44:03.491Z,10.20
2018-09-05T23:46:30.326Z,9.90
2018-09-05T23:48:57.175Z,10.10
2018-09-05T23:51:24.016Z,10.27
2018-09-05T23:53:50.842Z,9.37
2018-09-05T23:56:17.667Z,10.00
2018-09-05T23:58:44.504Z,10.27
